sensor_id;sensor_type;location;lat;lon;timestamp;temperature;humidity
13322;DHT22;6730;46.248;6.930;2023-09-07T00:01:30;22.10;99.90
13322;DHT22;6730;46.248;6.930;2023-09-07T00:03:56;22.10;99.90
13322;DHT22;6730;46.248;6.930;2023-09-07T00:06:22;21.90;99.90
13322;DHT22;6730;46.248;6.930;2023-09-07T00:08:48;22.00;99.90
13322;DHT22;6730;46.248;6.930;2023-09-07T00:11:13;22.20;99.90
13322;DHT22;6730;46.248;6.930;2023-09-07T00:13:39;22.40;99.90
13322;DHT22;6730;46.248;6.930;2023-09-07T00:16:05;22.50;99.90
13322;DHT22;6730;46.248;6.930;2023-09-07T00:18:32;22.40;99.90
13322;DHT22;6730;46.248;6.930;2023-09-07T00:20:58;22.30;99.90
13322;DHT22;6730;46.248;6.930;2023-09-07T00:23:25;22.30;99.90
13322;DHT22;6730;46.248;6.930;2023-09-07T00:25:50;22.20;99.90
13322;DHT22;6730;46.248;6.930;2023-09-07T00:28:16;22.40;99.90
13322;DHT22;6730;46.248;6.930;2023-09-07T00:30:42;22.40;99.90
13322;DHT22;6730;46.248;6.930;2023-09-07T00:33:08;22.30;99.90
13322;DHT22;6730;46.248;6.930;2023-09-07T00:35:34;22.30;99.90
13322;DHT22;6730;46.248;6.930;2023-09-07T00:38:00;22.20;99.90
13322;DHT22;6730;46.248;6.930;2023-09-07T00:40:25;22.20;99.90
13322;DHT22;6730;46.248;6.930;2023-09-07T00:42:52;22.10;99.90
13322;DHT22;6730;46.248;6.930;2023-09-07T00:45:18;22.00;99.90
13322;DHT22;6730;46.248;6.930;2023-09-07T00:47:44;21.70;99.90
13322;DHT22;6730;46.248;6.930;2023-09-07T00:50:10;21.40;99.90
13322;DHT22;6730;46.248;6.930;2023-09-07T00:52:42;21.30;99.90
13322;DHT22;6730;46.248;6.930;2023-09-07T00:55:08;21.30;99.90
13322;DHT22;6730;46.248;6.930;2023-09-07T00:57:35;21.50;99.90
13322;DHT22;6730;46.248;6.930;2023-09-07T01:00:03;21.70;99.90
13322;DHT22;6730;46.248;6.930;2023-09-07T01:02:31;21.80;99.90
13322;DHT22;6730;46.248;6.930;2023-09-07T01:04:57;21.80;99.90
13322;DHT22;6730;46.248;6.930;2023-09-07T01:07:44;21.70;99.90
13322;DHT22;6730;46.248;6.930;2023-09-07T01:10:12;21.70;99.90
13322;DHT22;6730;46.248;6.930;2023-09-07T01:12:40;21.50;99.90
13322;DHT22;6730;46.248;6.930;2023-09-07T01:15:06;21.40;99.90
13322;DHT22;6730;46.248;6.930;2023-09-07T01:17:33;21.50;99.90
13322;DHT22;6730;46.248;6.930;2023-09-07T01:20:04;21.70;99.90
13322;DHT22;6730;46.248;6.930;2023-09-07T01:22:33;21.60;99.90
13322;DHT22;6730;46.248;6.930;2023-09-07T01:25:00;21.70;99.90
13322;DHT22;6730;46.248;6.930;2023-09-07T01:27:27;21.70;99.90
13322;DHT22;6730;46.248;6.930;2023-09-07T01:29:53;21.60;99.90
13322;DHT22;6730;46.248;6.930;2023-09-07T01:32:19;21.20;99.90
13322;DHT22;6730;46.248;6.930;2023-09-07T01:34:44;20.90;99.90
13322;DHT22;6730;46.248;6.930;2023-09-07T01:37:13;20.90;99.90
13322;DHT22;6730;46.248;6.930;2023-09-07T01:39:39;21.00;99.90
13322;DHT22;6730;46.248;6.930;2023-09-07T01:42:04;21.10;99.90
13322;DHT22;6730;46.248;6.930;2023-09-07T01:44:30;21.20;99.90
13322;DHT22;6730;46.248;6.930;2023-09-07T01:46:56;21.40;99.90
13322;DHT22;6730;46.248;6.930;2023-09-07T01:49:21;21.60;99.90
13322;DHT22;6730;46.248;6.930;2023-09-07T01:51:47;21.80;99.90
13322;DHT22;6730;46.248;6.930;2023-09-07T01:54:13;21.80;99.90
13322;DHT22;6730;46.248;6.930;2023-09-07T01:56:39;21.70;99.90
13322;DHT22;6730;46.248;6.930;2023-09-07T01:59:09;21.60;99.90
13322;DHT22;6730;46.248;6.930;2023-09-07T02:01:35;21.50;99.90
13322;DHT22;6730;46.248;6.930;2023-09-07T02:04:03;21.40;99.90
13322;DHT22;6730;46.248;6.930;2023-09-07T02:06:28;21.40;99.90
13322;DHT22;6730;46.248;6.930;2023-09-07T02:08:54;21.30;99.90
13322;DHT22;6730;46.248;6.930;2023-09-07T02:11:20;21.40;99.90
13322;DHT22;6730;46.248;6.930;2023-09-07T02:13:47;21.60;99.90
13322;DHT22;6730;46.248;6.930;2023-09-07T02:16:13;21.70;99.90
13322;DHT22;6730;46.248;6.930;2023-09-07T02:18:39;21.70;99.90
13322;DHT22;6730;46.248;6.930;2023-09-07T02:21:13;21.70;99.90
13322;DHT22;6730;46.248;6.930;2023-09-07T02:23:38;21.60;99.90
13322;DHT22;6730;46.248;6.930;2023-09-07T02:26:04;21.40;99.90
13322;DHT22;6730;46.248;6.930;2023-09-07T02:28:30;21.40;99.90
13322;DHT22;6730;46.248;6.930;2023-09-07T02:31:05;21.30;99.90
13322;DHT22;6730;46.248;6.930;2023-09-07T02:33:32;21.10;99.90
13322;DHT22;6730;46.248;6.930;2023-09-07T02:35:58;20.90;99.90
13322;DHT22;6730;46.248;6.930;2023-09-07T02:38:24;21.00;99.90
13322;DHT22;6730;46.248;6.930;2023-09-07T02:40:49;21.40;99.90
13322;DHT22;6730;46.248;6.930;2023-09-07T02:43:15;21.60;99.90
13322;DHT22;6730;46.248;6.930;2023-09-07T02:45:41;21.50;99.90
13322;DHT22;6730;46.248;6.930;2023-09-07T02:48:07;21.30;99.90
13322;DHT22;6730;46.248;6.930;2023-09-07T02:50:33;21.10;99.90
13322;DHT22;6730;46.248;6.930;2023-09-07T02:53:00;21.00;99.90
13322;DHT22;6730;46.248;6.930;2023-09-07T02:55:27;21.30;99.90
13322;DHT22;6730;46.248;6.930;2023-09-07T02:57:52;21.30;99.90
13322;DHT22;6730;46.248;6.930;2023-09-07T03:00:19;21.30;99.90
13322;DHT22;6730;46.248;6.930;2023-09-07T03:02:47;21.20;99.90
13322;DHT22;6730;46.248;6.930;2023-09-07T03:05:15;21.20;99.90
13322;DHT22;6730;46.248;6.930;2023-09-07T03:07:40;21.20;99.90
13322;DHT22;6730;46.248;6.930;2023-09-07T03:10:06;21.00;99.90
13322;DHT22;6730;46.248;6.930;2023-09-07T03:12:33;20.90;99.90
13322;DHT22;6730;46.248;6.930;2023-09-07T03:14:59;20.80;99.90
13322;DHT22;6730;46.248;6.930;2023-09-07T03:17:29;21.00;99.90
13322;DHT22;6730;46.248;6.930;2023-09-07T03:19:54;21.20;99.90
13322;DHT22;6730;46.248;6.930;2023-09-07T03:22:20;21.30;99.90
13322;DHT22;6730;46.248;6.930;2023-09-07T03:24:46;21.40;99.90
13322;DHT22;6730;46.248;6.930;2023-09-07T03:27:12;21.50;99.90
13322;DHT22;6730;46.248;6.930;2023-09-07T03:29:38;21.60;99.90
13322;DHT22;6730;46.248;6.930;2023-09-07T03:32:04;21.60;99.90
13322;DHT22;6730;46.248;6.930;2023-09-07T03:34:31;21.40;99.90
13322;DHT22;6730;46.248;6.930;2023-09-07T03:36:57;21.20;99.90
13322;DHT22;6730;46.248;6.930;2023-09-07T03:39:23;21.10;99.90
13322;DHT22;6730;46.248;6.930;2023-09-07T03:41:49;21.00;99.90
13322;DHT22;6730;46.248;6.930;2023-09-07T03:44:14;21.00;99.90
13322;DHT22;6730;46.248;6.930;2023-09-07T03:46:40;20.90;99.90
13322;DHT22;6730;46.248;6.930;2023-09-07T03:49:06;21.00;99.90
13322;DHT22;6730;46.248;6.930;2023-09-07T03:51:32;21.10;99.90
13322;DHT22;6730;46.248;6.930;2023-09-07T03:53:57;21.20;99.90
13322;DHT22;6730;46.248;6.930;2023-09-07T03:56:24;21.20;99.90
13322;DHT22;6730;46.248;6.930;2023-09-07T03:58:50;21.20;99.90
13322;DHT22;6730;46.248;6.930;2023-09-07T04:01:15;21.20;99.90
13322;DHT22;6730;46.248;6.930;2023-09-07T04:03:41;21.20;99.90
13322;DHT22;6730;46.248;6.930;2023-09-07T04:06:07;21.10;99.90
13322;DHT22;6730;46.248;6.930;2023-09-07T04:08:33;21.10;99.90
13322;DHT22;6730;46.248;6.930;2023-09-07T04:11:06;21.00;99.90
13322;DHT22;6730;46.248;6.930;2023-09-07T04:13:32;21.10;99.90
13322;DHT22;6730;46.248;6.930;2023-09-07T04:15:58;21.30;99.90
13322;DHT22;6730;46.248;6.930;2023-09-07T04:18:23;21.30;99.90
13322;DHT22;6730;46.248;6.930;2023-09-07T04:20:49;21.20;99.90
13322;DHT22;6730;46.248;6.930;2023-09-07T04:23:15;21.20;99.90
13322;DHT22;6730;46.248;6.930;2023-09-07T04:25:41;21.20;99.90
13322;DHT22;6730;46.248;6.930;2023-09-07T04:28:08;21.20;99.90
13322;DHT22;6730;46.248;6.930;2023-09-07T04:30:41;21.20;99.90
13322;DHT22;6730;46.248;6.930;2023-09-07T04:33:07;21.00;99.90
13322;DHT22;6730;46.248;6.930;2023-09-07T04:35:33;21.00;99.90
13322;DHT22;6730;46.248;6.930;2023-09-07T04:37:58;21.00;99.90
13322;DHT22;6730;46.248;6.930;2023-09-07T04:40:25;21.00;99.90
13322;DHT22;6730;46.248;6.930;2023-09-07T04:42:50;20.90;99.90
13322;DHT22;6730;46.248;6.930;2023-09-07T04:45:16;20.90;99.90
13322;DHT22;6730;46.248;6.930;2023-09-07T04:47:43;20.90;99.90
13322;DHT22;6730;46.248;6.930;2023-09-07T04:50:08;20.80;99.90
13322;DHT22;6730;46.248;6.930;2023-09-07T04:52:34;20.70;99.90
13322;DHT22;6730;46.248;6.930;2023-09-07T04:55:01;20.60;99.90
13322;DHT22;6730;46.248;6.930;2023-09-07T04:57:26;20.50;99.90
13322;DHT22;6730;46.248;6.930;2023-09-07T04:59:52;20.50;99.90
13322;DHT22;6730;46.248;6.930;2023-09-07T05:02:18;20.60;99.90
13322;DHT22;6730;46.248;6.930;2023-09-07T05:04:44;20.70;99.90
13322;DHT22;6730;46.248;6.930;2023-09-07T05:07:10;20.70;99.90
13322;DHT22;6730;46.248;6.930;2023-09-07T05:09:36;20.60;99.90
13322;DHT22;6730;46.248;6.930;2023-09-07T05:12:04;20.60;99.90
13322;DHT22;6730;46.248;6.930;2023-09-07T05:14:30;20.70;99.90
13322;DHT22;6730;46.248;6.930;2023-09-07T05:16:55;20.70;99.90
13322;DHT22;6730;46.248;6.930;2023-09-07T05:19:24;20.80;99.90
13322;DHT22;6730;46.248;6.930;2023-09-07T05:21:49;20.70;99.90
13322;DHT22;6730;46.248;6.930;2023-09-07T05:24:15;20.70;99.90
13322;DHT22;6730;46.248;6.930;2023-09-07T05:26:44;20.70;99.90
13322;DHT22;6730;46.248;6.930;2023-09-07T05:29:11;20.80;99.90
13322;DHT22;6730;46.248;6.930;2023-09-07T05:31:37;20.80;99.90
13322;DHT22;6730;46.248;6.930;2023-09-07T05:34:03;20.80;99.90
13322;DHT22;6730;46.248;6.930;2023-09-07T05:36:29;20.70;99.90
13322;DHT22;6730;46.248;6.930;2023-09-07T05:38:55;20.60;99.90
13322;DHT22;6730;46.248;6.930;2023-09-07T05:41:21;20.40;99.90
13322;DHT22;6730;46.248;6.930;2023-09-07T05:43:46;20.20;99.90
13322;DHT22;6730;46.248;6.930;2023-09-07T05:46:12;20.30;99.90
13322;DHT22;6730;46.248;6.930;2023-09-07T05:48:37;20.60;99.90
13322;DHT22;6730;46.248;6.930;2023-09-07T05:51:03;20.90;99.90
13322;DHT22;6730;46.248;6.930;2023-09-07T05:53:29;21.10;99.90
13322;DHT22;6730;46.248;6.930;2023-09-07T05:55:55;21.10;99.90
13322;DHT22;6730;46.248;6.930;2023-09-07T05:58:20;20.80;99.90
13322;DHT22;6730;46.248;6.930;2023-09-07T06:00:46;20.70;99.90
13322;DHT22;6730;46.248;6.930;2023-09-07T06:03:12;20.90;99.90
13322;DHT22;6730;46.248;6.930;2023-09-07T06:05:38;21.10;99.90
13322;DHT22;6730;46.248;6.930;2023-09-07T06:08:05;21.30;99.90
13322;DHT22;6730;46.248;6.930;2023-09-07T06:10:34;21.20;99.90
13322;DHT22;6730;46.248;6.930;2023-09-07T06:13:00;21.10;99.90
13322;DHT22;6730;46.248;6.930;2023-09-07T06:15:26;21.00;99.90
13322;DHT22;6730;46.248;6.930;2023-09-07T06:17:52;21.10;99.90
13322;DHT22;6730;46.248;6.930;2023-09-07T06:20:18;21.20;99.90
13322;DHT22;6730;46.248;6.930;2023-09-07T06:22:45;21.40;99.90
13322;DHT22;6730;46.248;6.930;2023-09-07T06:25:10;21.50;99.90
13322;DHT22;6730;46.248;6.930;2023-09-07T06:27:36;21.50;99.90
13322;DHT22;6730;46.248;6.930;2023-09-07T06:30:02;21.80;99.90
13322;DHT22;6730;46.248;6.930;2023-09-07T06:32:28;22.10;99.90
13322;DHT22;6730;46.248;6.930;2023-09-07T06:34:54;22.40;99.90
13322;DHT22;6730;46.248;6.930;2023-09-07T06:37:19;22.60;99.90
13322;DHT22;6730;46.248;6.930;2023-09-07T06:39:45;22.80;99.90
13322;DHT22;6730;46.248;6.930;2023-09-07T06:42:10;22.80;99.90
13322;DHT22;6730;46.248;6.930;2023-09-07T06:44:36;23.10;99.90
13322;DHT22;6730;46.248;6.930;2023-09-07T06:47:02;23.20;99.90
13322;DHT22;6730;46.248;6.930;2023-09-07T06:49:28;23.20;99.90
13322;DHT22;6730;46.248;6.930;2023-09-07T06:51:56;23.40;99.90
13322;DHT22;6730;46.248;6.930;2023-09-07T06:54:22;23.50;99.90
13322;DHT22;6730;46.248;6.930;2023-09-07T06:56:48;23.90;99.90
13322;DHT22;6730;46.248;6.930;2023-09-07T06:59:14;24.40;99.90
13322;DHT22;6730;46.248;6.930;2023-09-07T07:01:39;24.70;99.90
13322;DHT22;6730;46.248;6.930;2023-09-07T07:04:05;24.80;99.90
13322;DHT22;6730;46.248;6.930;2023-09-07T07:06:32;25.10;99.90
13322;DHT22;6730;46.248;6.930;2023-09-07T07:09:00;24.90;99.90
13322;DHT22;6730;46.248;6.930;2023-09-07T07:11:26;24.70;99.90
13322;DHT22;6730;46.248;6.930;2023-09-07T07:13:51;25.00;99.90
13322;DHT22;6730;46.248;6.930;2023-09-07T07:16:17;25.20;99.90
13322;DHT22;6730;46.248;6.930;2023-09-07T07:18:43;25.20;99.90
13322;DHT22;6730;46.248;6.930;2023-09-07T07:21:08;25.50;99.90
13322;DHT22;6730;46.248;6.930;2023-09-07T07:23:35;25.70;99.90
13322;DHT22;6730;46.248;6.930;2023-09-07T07:26:00;26.00;99.90
13322;DHT22;6730;46.248;6.930;2023-09-07T07:28:26;26.10;99.90
13322;DHT22;6730;46.248;6.930;2023-09-07T07:30:52;26.20;99.90
13322;DHT22;6730;46.248;6.930;2023-09-07T07:33:19;26.30;99.90
13322;DHT22;6730;46.248;6.930;2023-09-07T07:35:45;25.40;99.90
13322;DHT22;6730;46.248;6.930;2023-09-07T07:38:12;25.30;99.90
13322;DHT22;6730;46.248;6.930;2023-09-07T07:40:39;25.40;99.90
13322;DHT22;6730;46.248;6.930;2023-09-07T07:43:05;25.50;99.90
13322;DHT22;6730;46.248;6.930;2023-09-07T07:45:31;25.60;99.90
13322;DHT22;6730;46.248;6.930;2023-09-07T07:48:02;26.20;99.90
13322;DHT22;6730;46.248;6.930;2023-09-07T07:50:27;26.50;99.90
13322;DHT22;6730;46.248;6.930;2023-09-07T07:52:53;26.80;99.90
13322;DHT22;6730;46.248;6.930;2023-09-07T07:55:19;27.00;99.90
13322;DHT22;6730;46.248;6.930;2023-09-07T07:57:44;27.00;99.90
13322;DHT22;6730;46.248;6.930;2023-09-07T08:00:10;27.00;99.90
13322;DHT22;6730;46.248;6.930;2023-09-07T08:02:36;26.70;99.90
13322;DHT22;6730;46.248;6.930;2023-09-07T08:05:03;25.90;99.90
13322;DHT22;6730;46.248;6.930;2023-09-07T08:07:30;26.00;99.90
13322;DHT22;6730;46.248;6.930;2023-09-07T08:09:55;26.10;99.90
13322;DHT22;6730;46.248;6.930;2023-09-07T08:12:21;26.50;99.90
13322;DHT22;6730;46.248;6.930;2023-09-07T08:14:49;26.80;99.90
13322;DHT22;6730;46.248;6.930;2023-09-07T08:17:15;26.80;99.90
13322;DHT22;6730;46.248;6.930;2023-09-07T08:19:41;27.10;99.90
13322;DHT22;6730;46.248;6.930;2023-09-07T08:22:12;27.50;99.90
13322;DHT22;6730;46.248;6.930;2023-09-07T08:24:37;27.30;99.90
13322;DHT22;6730;46.248;6.930;2023-09-07T08:27:03;26.90;99.90
13322;DHT22;6730;46.248;6.930;2023-09-07T08:29:29;27.10;99.90
13322;DHT22;6730;46.248;6.930;2023-09-07T08:31:57;27.60;99.90
13322;DHT22;6730;46.248;6.930;2023-09-07T08:34:29;27.70;99.90
13322;DHT22;6730;46.248;6.930;2023-09-07T08:36:56;27.10;99.90
13322;DHT22;6730;46.248;6.930;2023-09-07T08:39:24;26.30;99.90
13322;DHT22;6730;46.248;6.930;2023-09-07T08:41:50;26.00;99.90
13322;DHT22;6730;46.248;6.930;2023-09-07T08:44:19;26.30;99.90
13322;DHT22;6730;46.248;6.930;2023-09-07T08:46:49;26.50;99.90
13322;DHT22;6730;46.248;6.930;2023-09-07T08:49:16;26.50;99.90
13322;DHT22;6730;46.248;6.930;2023-09-07T08:51:45;26.80;99.90
13322;DHT22;6730;46.248;6.930;2023-09-07T08:54:13;26.60;99.90
13322;DHT22;6730;46.248;6.930;2023-09-07T08:56:38;26.60;99.90
13322;DHT22;6730;46.248;6.930;2023-09-07T08:59:05;27.00;99.90
13322;DHT22;6730;46.248;6.930;2023-09-07T09:01:31;27.30;99.90
13322;DHT22;6730;46.248;6.930;2023-09-07T09:03:57;26.90;99.90
13322;DHT22;6730;46.248;6.930;2023-09-07T09:06:23;26.70;99.90
13322;DHT22;6730;46.248;6.930;2023-09-07T09:08:56;26.80;99.90
13322;DHT22;6730;46.248;6.930;2023-09-07T09:11:24;26.60;99.90
13322;DHT22;6730;46.248;6.930;2023-09-07T09:13:51;27.30;99.90
13322;DHT22;6730;46.248;6.930;2023-09-07T09:16:20;26.70;99.90
13322;DHT22;6730;46.248;6.930;2023-09-07T09:18:57;27.30;99.90
13322;DHT22;6730;46.248;6.930;2023-09-07T09:21:24;26.70;99.90
13322;DHT22;6730;46.248;6.930;2023-09-07T09:23:55;26.30;99.90
13322;DHT22;6730;46.248;6.930;2023-09-07T09:26:21;26.20;99.90
13322;DHT22;6730;46.248;6.930;2023-09-07T09:28:49;26.50;99.90
13322;DHT22;6730;46.248;6.930;2023-09-07T09:31:17;27.30;99.90
13322;DHT22;6730;46.248;6.930;2023-09-07T09:33:47;27.70;99.90
13322;DHT22;6730;46.248;6.930;2023-09-07T09:36:12;27.80;99.90
13322;DHT22;6730;46.248;6.930;2023-09-07T09:38:39;28.10;99.90
13322;DHT22;6730;46.248;6.930;2023-09-07T09:41:05;28.10;99.40
13322;DHT22;6730;46.248;6.930;2023-09-07T09:43:31;27.00;99.90
13322;DHT22;6730;46.248;6.930;2023-09-07T09:45:57;26.90;99.90
13322;DHT22;6730;46.248;6.930;2023-09-07T09:48:27;27.10;99.90
13322;DHT22;6730;46.248;6.930;2023-09-07T09:50:53;27.00;99.90
13322;DHT22;6730;46.248;6.930;2023-09-07T09:53:19;27.00;99.90
13322;DHT22;6730;46.248;6.930;2023-09-07T09:55:50;26.90;99.90
13322;DHT22;6730;46.248;6.930;2023-09-07T09:58:18;27.00;99.90
13322;DHT22;6730;46.248;6.930;2023-09-07T10:00:55;26.70;99.90
13322;DHT22;6730;46.248;6.930;2023-09-07T10:03:26;26.70;99.90
13322;DHT22;6730;46.248;6.930;2023-09-07T10:05:53;26.70;99.90
13322;DHT22;6730;46.248;6.930;2023-09-07T10:08:20;27.20;99.90
13322;DHT22;6730;46.248;6.930;2023-09-07T10:10:49;27.40;99.90
13322;DHT22;6730;46.248;6.930;2023-09-07T10:13:16;27.40;99.90
13322;DHT22;6730;46.248;6.930;2023-09-07T10:15:42;27.20;99.90
13322;DHT22;6730;46.248;6.930;2023-09-07T10:18:15;27.20;99.90
13322;DHT22;6730;46.248;6.930;2023-09-07T10:20:54;26.60;99.90
13322;DHT22;6730;46.248;6.930;2023-09-07T10:23:22;26.50;99.90
13322;DHT22;6730;46.248;6.930;2023-09-07T10:25:50;26.70;99.90
13322;DHT22;6730;46.248;6.930;2023-09-07T10:28:25;26.80;99.90
13322;DHT22;6730;46.248;6.930;2023-09-07T10:33:26;26.20;99.90
13322;DHT22;6730;46.248;6.930;2023-09-07T10:35:54;26.60;99.90
13322;DHT22;6730;46.248;6.930;2023-09-07T10:38:20;26.40;99.90
13322;DHT22;6730;46.248;6.930;2023-09-07T10:40:47;26.50;99.90
13322;DHT22;6730;46.248;6.930;2023-09-07T10:43:13;26.70;99.90
13322;DHT22;6730;46.248;6.930;2023-09-07T10:45:39;26.80;99.90
13322;DHT22;6730;46.248;6.930;2023-09-07T10:48:05;26.60;99.90
13322;DHT22;6730;46.248;6.930;2023-09-07T10:50:45;26.30;99.90
13322;DHT22;6730;46.248;6.930;2023-09-07T10:53:14;26.10;99.90
13322;DHT22;6730;46.248;6.930;2023-09-07T10:55:41;26.30;99.90
13322;DHT22;6730;46.248;6.930;2023-09-07T10:58:10;26.30;99.90
13322;DHT22;6730;46.248;6.930;2023-09-07T11:00:36;26.10;99.90
13322;DHT22;6730;46.248;6.930;2023-09-07T11:03:09;26.50;99.90
13322;DHT22;6730;46.248;6.930;2023-09-07T11:05:37;26.00;99.90
13322;DHT22;6730;46.248;6.930;2023-09-07T11:08:05;26.10;99.90
13322;DHT22;6730;46.248;6.930;2023-09-07T11:10:35;26.20;99.90
13322;DHT22;6730;46.248;6.930;2023-09-07T11:13:06;26.90;99.90
13322;DHT22;6730;46.248;6.930;2023-09-07T11:15:33;27.30;99.90
13322;DHT22;6730;46.248;6.930;2023-09-07T11:18:08;27.50;99.90
13322;DHT22;6730;46.248;6.930;2023-09-07T11:20:37;27.20;99.90
13322;DHT22;6730;46.248;6.930;2023-09-07T11:23:06;26.70;99.90
13322;DHT22;6730;46.248;6.930;2023-09-07T11:25:37;26.20;99.90
13322;DHT22;6730;46.248;6.930;2023-09-07T11:28:06;26.10;99.90
13322;DHT22;6730;46.248;6.930;2023-09-07T11:30:33;26.20;99.90
13322;DHT22;6730;46.248;6.930;2023-09-07T11:35:27;26.80;99.90
13322;DHT22;6730;46.248;6.930;2023-09-07T11:37:53;27.10;99.90
13322;DHT22;6730;46.248;6.930;2023-09-07T11:40:19;27.40;99.90
13322;DHT22;6730;46.248;6.930;2023-09-07T11:42:45;27.40;99.90
13322;DHT22;6730;46.248;6.930;2023-09-07T11:45:11;26.80;99.90
13322;DHT22;6730;46.248;6.930;2023-09-07T11:47:39;27.10;99.90
13322;DHT22;6730;46.248;6.930;2023-09-07T11:50:05;27.60;99.90
13322;DHT22;6730;46.248;6.930;2023-09-07T11:52:32;28.00;99.90
13322;DHT22;6730;46.248;6.930;2023-09-07T11:54:58;28.10;99.90
13322;DHT22;6730;46.248;6.930;2023-09-07T11:57:23;28.00;99.90
13322;DHT22;6730;46.248;6.930;2023-09-07T11:59:50;27.60;99.90
13322;DHT22;6730;46.248;6.930;2023-09-07T12:02:15;27.30;99.90
13322;DHT22;6730;46.248;6.930;2023-09-07T12:04:43;26.60;99.90
13322;DHT22;6730;46.248;6.930;2023-09-07T12:07:10;26.10;99.90
13322;DHT22;6730;46.248;6.930;2023-09-07T12:09:35;26.30;99.90
13322;DHT22;6730;46.248;6.930;2023-09-07T12:12:02;26.70;99.90
13322;DHT22;6730;46.248;6.930;2023-09-07T12:14:29;26.90;99.90
13322;DHT22;6730;46.248;6.930;2023-09-07T12:16:54;27.00;99.90
13322;DHT22;6730;46.248;6.930;2023-09-07T12:19:23;27.10;99.90
13322;DHT22;6730;46.248;6.930;2023-09-07T12:21:51;26.50;99.90
13322;DHT22;6730;46.248;6.930;2023-09-07T12:24:17;26.00;99.90
13322;DHT22;6730;46.248;6.930;2023-09-07T12:26:42;25.80;99.90
13322;DHT22;6730;46.248;6.930;2023-09-07T12:29:08;25.60;99.90
13322;DHT22;6730;46.248;6.930;2023-09-07T12:31:34;25.50;99.90
13322;DHT22;6730;46.248;6.930;2023-09-07T12:34:00;25.40;99.90
13322;DHT22;6730;46.248;6.930;2023-09-07T12:36:25;25.70;99.90
13322;DHT22;6730;46.248;6.930;2023-09-07T12:38:55;25.60;99.90
13322;DHT22;6730;46.248;6.930;2023-09-07T12:41:29;25.40;99.90
13322;DHT22;6730;46.248;6.930;2023-09-07T12:43:56;25.90;99.90
13322;DHT22;6730;46.248;6.930;2023-09-07T12:46:21;26.10;99.90
13322;DHT22;6730;46.248;6.930;2023-09-07T12:48:47;25.70;99.90
13322;DHT22;6730;46.248;6.930;2023-09-07T12:51:13;25.60;99.90
13322;DHT22;6730;46.248;6.930;2023-09-07T12:53:38;25.50;99.90
13322;DHT22;6730;46.248;6.930;2023-09-07T12:56:05;25.70;99.90
13322;DHT22;6730;46.248;6.930;2023-09-07T12:58:31;25.60;99.90
13322;DHT22;6730;46.248;6.930;2023-09-07T13:00:56;25.40;99.90
13322;DHT22;6730;46.248;6.930;2023-09-07T13:03:22;25.40;99.90
13322;DHT22;6730;46.248;6.930;2023-09-07T13:05:48;25.60;99.90
13322;DHT22;6730;46.248;6.930;2023-09-07T13:08:14;25.40;99.90
13322;DHT22;6730;46.248;6.930;2023-09-07T13:10:40;25.40;99.90
13322;DHT22;6730;46.248;6.930;2023-09-07T13:13:06;25.40;99.90
13322;DHT22;6730;46.248;6.930;2023-09-07T13:15:32;25.50;99.90
13322;DHT22;6730;46.248;6.930;2023-09-07T13:17:58;25.70;99.90
13322;DHT22;6730;46.248;6.930;2023-09-07T13:20:24;25.70;99.90
13322;DHT22;6730;46.248;6.930;2023-09-07T13:22:49;25.40;99.90
13322;DHT22;6730;46.248;6.930;2023-09-07T13:25:15;25.10;99.90
13322;DHT22;6730;46.248;6.930;2023-09-07T13:27:41;25.00;99.90
13322;DHT22;6730;46.248;6.930;2023-09-07T13:30:07;25.10;99.90
13322;DHT22;6730;46.248;6.930;2023-09-07T13:32:34;25.30;99.90
13322;DHT22;6730;46.248;6.930;2023-09-07T13:34:59;25.50;99.90
13322;DHT22;6730;46.248;6.930;2023-09-07T13:37:25;25.40;99.90
13322;DHT22;6730;46.248;6.930;2023-09-07T13:39:51;25.20;99.90
13322;DHT22;6730;46.248;6.930;2023-09-07T13:42:17;25.40;99.90
13322;DHT22;6730;46.248;6.930;2023-09-07T13:44:42;25.70;99.90
13322;DHT22;6730;46.248;6.930;2023-09-07T13:47:11;25.30;99.90
13322;DHT22;6730;46.248;6.930;2023-09-07T13:49:36;25.10;99.90
13322;DHT22;6730;46.248;6.930;2023-09-07T13:52:02;25.00;99.90
13322;DHT22;6730;46.248;6.930;2023-09-07T13:54:28;25.00;99.90
13322;DHT22;6730;46.248;6.930;2023-09-07T13:56:54;25.10;99.90
13322;DHT22;6730;46.248;6.930;2023-09-07T13:59:20;25.20;99.90
13322;DHT22;6730;46.248;6.930;2023-09-07T14:01:46;25.20;99.90
13322;DHT22;6730;46.248;6.930;2023-09-07T14:04:11;25.30;99.90
13322;DHT22;6730;46.248;6.930;2023-09-07T14:06:37;25.60;99.90
13322;DHT22;6730;46.248;6.930;2023-09-07T14:09:03;26.00;99.90
13322;DHT22;6730;46.248;6.930;2023-09-07T14:11:29;25.90;99.90
13322;DHT22;6730;46.248;6.930;2023-09-07T14:13:56;26.00;99.90
13322;DHT22;6730;46.248;6.930;2023-09-07T14:16:22;26.30;99.90
13322;DHT22;6730;46.248;6.930;2023-09-07T14:18:48;26.40;99.90
13322;DHT22;6730;46.248;6.930;2023-09-07T14:21:15;26.00;99.90
13322;DHT22;6730;46.248;6.930;2023-09-07T14:23:41;25.70;99.90
13322;DHT22;6730;46.248;6.930;2023-09-07T14:26:08;25.50;99.90
13322;DHT22;6730;46.248;6.930;2023-09-07T14:28:34;25.70;99.90
13322;DHT22;6730;46.248;6.930;2023-09-07T14:31:00;25.70;99.90
13322;DHT22;6730;46.248;6.930;2023-09-07T14:33:28;25.80;99.90
13322;DHT22;6730;46.248;6.930;2023-09-07T14:35:54;25.80;99.90
13322;DHT22;6730;46.248;6.930;2023-09-07T14:38:20;25.80;99.90
13322;DHT22;6730;46.248;6.930;2023-09-07T14:40:46;25.60;99.90
13322;DHT22;6730;46.248;6.930;2023-09-07T14:43:14;25.40;99.90
13322;DHT22;6730;46.248;6.930;2023-09-07T14:45:40;25.40;99.90
13322;DHT22;6730;46.248;6.930;2023-09-07T14:48:06;25.40;99.90
13322;DHT22;6730;46.248;6.930;2023-09-07T14:50:31;25.40;99.90
13322;DHT22;6730;46.248;6.930;2023-09-07T14:52:57;25.60;99.90
13322;DHT22;6730;46.248;6.930;2023-09-07T14:55:23;25.70;99.90
13322;DHT22;6730;46.248;6.930;2023-09-07T14:57:48;26.00;99.90
13322;DHT22;6730;46.248;6.930;2023-09-07T15:00:14;26.40;99.90
13322;DHT22;6730;46.248;6.930;2023-09-07T15:02:40;26.30;99.90
13322;DHT22;6730;46.248;6.930;2023-09-07T15:05:06;26.20;99.90
13322;DHT22;6730;46.248;6.930;2023-09-07T15:07:32;26.20;99.90
13322;DHT22;6730;46.248;6.930;2023-09-07T15:09:57;26.20;99.90
13322;DHT22;6730;46.248;6.930;2023-09-07T15:12:23;26.40;99.90
13322;DHT22;6730;46.248;6.930;2023-09-07T15:14:49;26.50;99.90
13322;DHT22;6730;46.248;6.930;2023-09-07T15:17:15;26.80;99.90
13322;DHT22;6730;46.248;6.930;2023-09-07T15:19:42;26.40;99.90
13322;DHT22;6730;46.248;6.930;2023-09-07T15:22:08;26.10;99.90
13322;DHT22;6730;46.248;6.930;2023-09-07T15:24:36;26.20;99.90
13322;DHT22;6730;46.248;6.930;2023-09-07T15:27:12;26.10;99.90
13322;DHT22;6730;46.248;6.930;2023-09-07T15:29:38;26.10;99.90
13322;DHT22;6730;46.248;6.930;2023-09-07T15:32:04;26.50;99.90
13322;DHT22;6730;46.248;6.930;2023-09-07T15:34:31;26.80;99.90
13322;DHT22;6730;46.248;6.930;2023-09-07T15:37:02;27.00;99.90
13322;DHT22;6730;46.248;6.930;2023-09-07T15:39:28;26.90;99.90
13322;DHT22;6730;46.248;6.930;2023-09-07T15:41:54;27.10;99.90
13322;DHT22;6730;46.248;6.930;2023-09-07T15:44:22;27.20;99.90
13322;DHT22;6730;46.248;6.930;2023-09-07T15:46:50;27.40;99.90